Time;durP1;ratioP1;P1;durP2;ratioP2;P2;SDS_P1;SDS_P2;PMS_P1;PMS_P2;Temp;Humidity;BMP_temperature;BMP_pressure;BME280_temperature;BME280_humidity;BME280_pressure;Samples;Min_cycle;Max_cycle;Signal;HPM_P1;HPM_P2
2023/06/22 00:01:17;;;;;;;9.65;4.75;;;;;;;24.04;60.25;99398.88;5149946;27;20047;-74
2023/06/22 00:03:44;;;;;;;8.20;5.28;;;;;;;24.06;60.04;99407.69;5149389;27;20229;-74
2023/06/22 00:06:10;;;;;;;10.68;4.90;;;;;;;24.10;59.66;99397.34;5150278;27;20049;-74
2023/06/22 00:08:39;;;;;;;7.35;4.82;;;;;;;23.98;59.90;99396.84;5148761;27;20062;-74
2023/06/22 00:11:05;;;;;;;11.15;5.03;;;;;;;23.91;60.33;99399.34;5149970;27;20221;-73
2023/06/22 00:13:32;;;;;;;12.75;5.32;;;;;;;23.86;60.78;99387.34;5149903;27;20309;-74
2023/06/22 00:15:59;;;;;;;19.17;13.35;;;;;;;23.84;61.04;99397.50;5149968;27;20047;-74
2023/06/22 00:18:27;;;;;;;13.07;9.70;;;;;;;23.57;61.03;99348.09;5149918;27;20043;-74
2023/06/22 00:20:57;;;;;;;9.93;6.65;;;;;;;23.88;60.37;99390.72;5149557;27;20283;-74
2023/06/22 00:23:25;;;;;;;7.95;4.97;;;;;;;23.88;60.15;99386.16;5149433;27;20035;-74
2023/06/22 00:25:53;;;;;;;11.13;5.53;;;;;;;23.82;60.66;99384.13;5148699;27;20139;-74
2023/06/22 00:28:20;;;;;;;6.85;4.68;;;;;;;23.81;60.52;99377.03;5150030;27;20039;-74
2023/06/22 00:30:47;;;;;;;8.07;4.68;;;;;;;23.80;60.55;99379.91;5148868;27;20035;-74
2023/06/22 00:33:15;;;;;;;9.75;5.15;;;;;;;23.54;61.14;99355.69;5148498;27;20054;-75
2023/06/22 00:35:42;;;;;;;7.15;4.60;;;;;;;23.65;61.05;99380.56;5149617;27;20046;-75
2023/06/22 00:38:09;;;;;;;8.57;4.95;;;;;;;23.69;60.70;99378.38;5149364;27;20307;-75
2023/06/22 00:40:37;;;;;;;8.65;4.88;;;;;;;23.75;60.25;99382.25;5149793;27;20056;-75
2023/06/22 00:43:06;;;;;;;11.07;4.88;;;;;;;23.62;60.24;99355.69;5149043;27;20102;-75
2023/06/22 00:45:33;;;;;;;10.23;5.63;;;;;;;23.59;61.17;99372.28;5148279;27;20049;-75
2023/06/22 00:48:00;;;;;;;9.20;5.35;;;;;;;23.24;61.08;99330.94;5149609;27;20039;-75
2023/06/22 00:50:28;;;;;;;9.07;5.10;;;;;;;23.15;61.49;99310.31;5148989;27;20031;-75
2023/06/22 00:52:58;;;;;;;12.20;5.13;;;;;;;22.87;61.39;99266.50;5149257;27;20046;-75
2023/06/22 00:55:25;;;;;;;10.52;5.05;;;;;;;23.39;61.89;99360.91;5149530;27;20108;-75
2023/06/22 00:57:55;;;;;;;8.00;4.43;;;;;;;23.43;61.94;99375.78;5149165;27;20287;-75
2023/06/22 01:00:24;;;;;;;6.15;4.70;;;;;;;23.46;61.83;99386.28;5148924;27;20039;-75
2023/06/22 01:02:52;;;;;;;12.57;4.50;;;;;;;23.50;61.61;99375.97;5148946;27;20043;-75
2023/06/22 01:05:20;;;;;;;13.15;5.57;;;;;;;23.09;61.99;99327.19;5147906;27;20039;-74
2023/06/22 01:07:57;;;;;;;7.85;4.70;;;;;;;23.44;61.88;99363.97;5148948;27;20295;-74
2023/06/22 01:10:30;;;;;;;9.38;5.00;;;;;;;23.34;62.81;99352.44;5149200;27;20327;-75
2023/06/22 01:13:02;;;;;;;7.18;4.32;;;;;;;23.27;63.07;99357.69;5149191;27;20049;-75
2023/06/22 01:15:36;;;;;;;6.80;4.60;;;;;;;23.44;62.21;99352.31;5148243;27;20291;-75
2023/06/22 01:18:05;;;;;;;7.03;4.97;;;;;;;23.37;62.39;99352.13;5147644;27;20039;-75
2023/06/22 01:20:35;;;;;;;7.75;4.60;;;;;;;23.32;62.64;99349.06;5147586;27;20031;-75
2023/06/22 01:23:12;;;;;;;8.07;4.65;;;;;;;23.32;62.57;99352.63;5147484;27;20039;-75
2023/06/22 01:25:47;;;;;;;8.63;6.05;;;;;;;23.22;62.94;99359.16;5147497;27;20047;-75
2023/06/22 01:28:26;;;;;;;9.88;4.50;;;;;;;22.54;63.79;99270.06;5147414;27;20034;-75
2023/06/22 01:31:03;;;;;;;7.90;4.68;;;;;;;22.92;64.00;99352.47;5147360;27;20045;-75
2023/06/22 01:33:34;;;;;;;9.68;5.00;;;;;;;22.78;64.14;99331.47;5148485;27;20035;-75
2023/06/22 01:36:01;;;;;;;8.80;5.13;;;;;;;22.97;63.92;99350.13;5148086;27;20110;-75
2023/06/22 01:38:30;;;;;;;13.30;4.93;;;;;;;22.69;63.49;99309.00;5148036;27;20050;-75
2023/06/22 01:40:58;;;;;;;8.43;4.78;;;;;;;23.08;63.25;99366.03;5147142;27;20201;-75
2023/06/22 01:43:27;;;;;;;6.38;4.25;;;;;;;23.11;63.12;99367.56;5147836;27;20077;-75
2023/06/22 01:45:57;;;;;;;10.02;4.63;;;;;;;23.08;63.37;99363.34;5147894;27;20046;-75
2023/06/22 01:48:25;;;;;;;7.85;5.13;;;;;;;23.04;63.22;99360.13;5147844;27;20051;-75
2023/06/22 01:50:53;;;;;;;10.82;4.80;;;;;;;22.99;63.58;99357.06;5147797;27;20047;-75
2023/06/22 01:53:22;;;;;;;12.63;5.00;;;;;;;22.21;63.73;99228.56;5146723;27;20031;-75
2023/06/22 01:55:49;;;;;;;6.80;4.50;;;;;;;22.85;64.14;99343.34;5146739;27;20034;-75
2023/06/22 01:58:17;;;;;;;6.05;4.20;;;;;;;22.90;63.85;99346.38;5147653;27;20058;-75
2023/06/22 02:00:49;;;;;;;7.25;3.97;;;;;;;22.92;63.71;99342.50;5147608;27;20035;-75
2023/06/22 02:03:21;;;;;;;8.30;4.78;;;;;;;22.88;64.08;99351.94;5147317;27;20195;-75
2023/06/22 02:05:51;;;;;;;6.68;3.78;;;;;;;22.83;64.21;99350.75;5147794;27;20051;-75
2023/06/22 02:08:22;;;;;;;9.95;4.32;;;;;;;22.67;64.19;99329.91;5147455;27;20047;-75
2023/06/22 02:10:50;;;;;;;6.03;4.13;;;;;;;22.78;64.59;99345.84;5146289;27;20043;-74
2023/06/22 02:13:18;;;;;;;8.82;4.28;;;;;;;22.81;64.32;99347.38;5147644;27;20043;-75
2023/06/22 02:15:47;;;;;;;6.53;4.05;;;;;;;22.82;64.34;99336.41;5147339;27;20043;-75
2023/06/22 02:18:15;;;;;;;7.88;4.90;;;;;;;22.80;64.13;99345.66;5146386;27;20035;-75
2023/06/22 02:20:44;;;;;;;7.75;4.90;;;;;;;22.81;63.80;99337.41;5147880;27;20258;-74
2023/06/22 02:23:11;;;;;;;11.63;4.90;;;;;;;22.46;63.73;99283.53;5146924;27;20043;-75
2023/06/22 02:25:38;;;;;;;7.68;4.80;;;;;;;22.76;63.87;99341.59;5147749;27;20088;-75
2023/06/22 02:28:05;;;;;;;10.18;4.47;;;;;;;22.69;64.21;99341.41;5147696;27;20043;-75
2023/06/22 02:30:35;;;;;;;9.18;4.55;;;;;;;22.32;64.89;99306.56;5147349;27;20042;-75
2023/06/22 02:33:02;;;;;;;6.57;4.75;;;;;;;22.40;64.97;99323.69;5146167;27;20039;-74
2023/06/22 02:35:31;;;;;;;9.13;4.97;;;;;;;22.45;65.46;99347.50;5147594;27;20146;-75
2023/06/22 02:37:59;;;;;;;11.40;5.10;;;;;;;22.58;64.78;99337.13;5146670;27;20096;-75
2023/06/22 02:40:26;;;;;;;10.30;4.72;;;;;;;22.62;64.53;99327.69;5146923;27;20050;-75
2023/06/22 02:42:53;;;;;;;8.23;4.03;;;;;;;22.61;64.41;99333.25;5147149;27;20298;-75
2023/06/22 02:45:20;;;;;;;7.72;4.75;;;;;;;22.61;64.68;99334.13;5147342;27;20035;-75
2023/06/22 02:47:47;;;;;;;14.80;5.53;;;;;;;22.32;64.46;99293.91;5146714;27;20039;-75
2023/06/22 02:50:15;;;;;;;8.18;4.20;;;;;;;22.59;64.41;99332.59;5147365;27;20051;-75
2023/06/22 02:52:41;;;;;;;8.20;4.82;;;;;;;22.50;65.01;99338.91;5146766;27;20149;-74
2023/06/22 02:55:10;;;;;;;6.88;4.20;;;;;;;22.57;64.35;99335.44;5146665;27;20123;-74
2023/06/22 02:57:37;;;;;;;9.25;4.75;;;;;;;22.57;64.42;99334.59;5145870;27;20326;-75
2023/06/22 03:00:15;;;;;;;10.07;4.25;;;;;;;22.38;64.60;99304.06;5146951;27;20043;-74
2023/06/22 03:02:42;;;;;;;7.45;4.82;;;;;;;22.31;64.68;99310.25;5145825;27;20047;-75
2023/06/22 03:05:13;;;;;;;9.93;4.63;;;;;;;22.48;64.49;99339.09;5146800;28;20087;-75
2023/06/22 03:07:40;;;;;;;8.02;4.85;;;;;;;22.34;64.88;99337.78;5145776;27;20123;-75
2023/06/22 03:10:09;;;;;;;6.53;4.95;;;;;;;22.40;64.41;99342.59;5146585;28;20311;-75
2023/06/22 03:12:37;;;;;;;8.93;4.40;;;;;;;22.25;65.06;99344.16;5146562;27;20295;-74
2023/06/22 03:15:06;;;;;;;9.35;4.95;;;;;;;21.58;65.57;99240.47;5147038;28;20076;-74
2023/06/22 03:17:33;;;;;;;8.25;4.65;;;;;;;22.20;65.19;99340.22;5145664;28;20068;-74
2023/06/22 03:20:00;;;;;;;8.32;4.85;;;;;;;22.13;64.88;99313.03;5145648;28;20039;-75
2023/06/22 03:22:27;;;;;;;7.40;4.28;;;;;;;21.92;64.82;99282.88;5146394;27;20051;-75
2023/06/22 03:24:54;;;;;;;6.82;3.97;;;;;;;22.25;64.51;99338.75;5146645;28;20280;-74
2023/06/22 03:27:21;;;;;;;9.23;5.40;;;;;;;21.95;66.13;99342.75;5146730;28;20045;-75
2023/06/22 03:29:49;;;;;;;12.85;5.20;;;;;;;21.89;66.41;99342.53;5145488;28;20035;-75
2023/06/22 03:32:16;;;;;;;8.70;4.38;;;;;;;22.18;65.19;99344.94;5146699;27;20075;-74
2023/06/22 03:34:46;;;;;;;7.97;4.63;;;;;;;22.20;64.90;99337.53;5145510;28;20059;-74
2023/06/22 03:37:14;;;;;;;7.03;5.63;;;;;;;22.17;65.02;99341.41;5146888;27;20054;-74
2023/06/22 03:39:42;;;;;;;10.32;4.82;;;;;;;22.13;65.16;99339.19;5146316;28;20043;-75
2023/06/22 03:42:08;;;;;;;7.80;4.22;;;;;;;22.11;65.35;99336.63;5145348;28;20039;-74
2023/06/22 03:44:36;;;;;;;10.32;4.90;;;;;;;21.89;66.65;99342.53;5146724;28;20111;-74
2023/06/22 03:47:07;;;;;;;9.70;4.15;;;;;;;21.20;66.76;99221.97;5145355;28;20043;-74
2023/06/22 03:49:34;;;;;;;7.97;4.72;;;;;;;21.99;66.38;99336.03;5146240;27;20035;-74
2023/06/22 03:52:01;;;;;;;8.68;4.95;;;;;;;22.09;65.83;99339.50;5146525;27;20132;-74
2023/06/22 03:54:27;;;;;;;8.15;4.07;;;;;;;22.13;65.65;99348.13;5145965;28;20105;-75
2023/06/22 03:56:54;;;;;;;8.70;5.60;;;;;;;21.96;65.77;99328.28;5146088;28;20111;-74
2023/06/22 03:59:21;;;;;;;8.15;5.32;;;;;;;22.17;65.70;99344.09;5146133;28;20046;-75
2023/06/22 04:01:48;;;;;;;10.55;4.65;;;;;;;22.20;65.91;99340.22;5146649;28;20039;-75
2023/06/22 04:04:16;;;;;;;6.90;4.95;;;;;;;21.70;65.66;99251.84;5145993;28;20031;-75
2023/06/22 04:06:42;;;;;;;7.53;5.10;;;;;;;22.21;65.77;99331.13;5146080;28;20043;-74
2023/06/22 04:09:09;;;;;;;10.55;5.25;;;;;;;22.00;65.52;99304.50;5146621;28;20302;-74
2023/06/22 04:11:36;;;;;;;8.73;5.50;;;;;;;22.29;65.32;99323.06;5146238;28;20335;-74
2023/06/22 04:14:03;;;;;;;8.38;5.93;;;;;;;22.31;65.55;99335.41;5146560;27;20038;-74
2023/06/22 04:16:29;;;;;;;8.27;5.43;;;;;;;22.32;65.76;99325.47;5146543;27;20047;-75
2023/06/22 04:18:56;;;;;;;11.70;5.60;;;;;;;22.34;65.63;99328.84;5147755;27;20047;-75
2023/06/22 04:21:24;;;;;;;10.32;5.80;;;;;;;22.39;65.52;99321.97;5149870;27;20039;-74
2023/06/22 04:23:51;;;;;;;9.38;5.28;;;;;;;22.17;65.82;99290.13;5148781;27;20106;-75
2023/06/22 04:26:20;;;;;;;8.40;5.13;;;;;;;22.36;65.49;99305.22;5149464;27;20092;-74
2023/06/22 04:28:51;;;;;;;8.77;5.35;;;;;;;21.92;65.31;99231.63;5149738;27;20043;-74
2023/06/22 04:31:18;;;;;;;8.30;5.45;;;;;;;22.40;65.78;99314.69;5149395;27;20307;-75
2023/06/22 04:33:45;;;;;;;10.48;5.47;;;;;;;22.46;65.58;99314.09;5148487;27;20039;-74
2023/06/22 04:36:13;;;;;;;8.80;5.15;;;;;;;22.47;65.93;99314.94;5149253;27;20043;-74
2023/06/22 04:38:42;;;;;;;9.85;6.22;;;;;;;22.40;66.05;99325.50;5149487;27;20042;-74
2023/06/22 04:41:14;;;;;;;9.32;5.45;;;;;;;22.41;66.08;99319.97;5149464;27;20039;-74
2023/06/22 04:43:41;;;;;;;9.52;4.93;;;;;;;22.23;65.61;99288.63;5148190;27;20053;-74
2023/06/22 04:46:08;;;;;;;8.48;5.05;;;;;;;22.56;65.63;99331.06;5149074;27;20213;-75
2023/06/22 04:48:34;;;;;;;11.25;5.65;;;;;;;22.52;65.93;99326.94;5149618;27;20067;-74
2023/06/22 04:51:03;;;;;;;12.82;5.18;;;;;;;22.56;65.51;99331.06;5148915;27;20126;-75
2023/06/22 04:53:30;;;;;;;7.88;4.75;;;;;;;22.57;65.53;99331.91;5148274;27;20047;-75
2023/06/22 04:55:58;;;;;;;12.95;5.47;;;;;;;22.50;65.87;99331.66;5148975;27;20164;-74
2023/06/22 04:58:26;;;;;;;11.35;5.68;;;;;;;22.55;65.43;99334.75;5149012;27;20043;-74
2023/06/22 05:00:56;;;;;;;8.38;5.10;;;;;;;22.61;65.28;99342.22;5148960;27;20035;-75
2023/06/22 05:03:25;;;;;;;8.27;5.25;;;;;;;22.62;65.45;99348.47;5148673;27;20067;-75
2023/06/22 05:05:53;;;;;;;8.48;5.60;;;;;;;22.66;65.11;99342.56;5148901;27;20307;-75
2023/06/22 05:08:20;;;;;;;6.90;4.85;;;;;;;22.62;65.61;99341.22;5148931;27;20164;-75
2023/06/22 05:10:47;;;;;;;8.50;5.25;;;;;;;22.46;65.21;99305.16;5149166;27;20106;-74
2023/06/22 05:13:15;;;;;;;8.20;4.55;;;;;;;22.62;64.89;99354.72;5149116;27;20051;-74
2023/06/22 05:15:42;;;;;;;9.73;4.47;;;;;;;22.69;64.30;99355.75;5149059;27;20102;-75
2023/06/22 05:18:11;;;;;;;11.25;4.88;;;;;;;22.75;64.05;99351.56;5147823;27;20034;-75
2023/06/22 05:20:38;;;;;;;7.82;4.20;;;;;;;22.71;63.76;99348.34;5147486;27;20084;-75
2023/06/22 05:23:05;;;;;;;9.45;4.82;;;;;;;22.64;63.93;99335.66;5148595;27;20043;-74
2023/06/22 05:25:32;;;;;;;13.25;5.13;;;;;;;22.77;64.12;99348.69;5148215;27;20039;-75
2023/06/22 05:27:59;;;;;;;12.10;5.38;;;;;;;22.71;63.88;99352.91;5148262;27;20203;-75
2023/06/22 05:30:28;;;;;;;9.85;5.15;;;;;;;22.73;63.91;99354.44;5147186;27;20043;-74
2023/06/22 05:32:54;;;;;;;11.15;4.40;;;;;;;21.98;63.39;99242.59;5148269;27;20370;-74
2023/06/22 05:35:21;;;;;;;10.30;6.47;;;;;;;22.58;63.60;99318.22;5148130;27;20103;-74
2023/06/22 05:37:48;;;;;;;8.63;5.32;;;;;;;22.82;63.54;99340.94;5147960;27;20042;-75
2023/06/22 05:40:16;;;;;;;9.25;4.78;;;;;;;22.72;63.70;99338.38;5148259;27;20039;-74
2023/06/22 05:42:42;;;;;;;10.15;4.30;;;;;;;22.65;63.76;99332.78;5147916;27;20031;-75
2023/06/22 05:45:10;;;;;;;11.90;5.07;;;;;;;22.68;63.63;99339.72;5147901;27;20031;-75
2023/06/22 05:47:38;;;;;;;10.18;4.85;;;;;;;22.78;63.26;99328.78;5146964;27;20039;-74
2023/06/22 05:50:08;;;;;;;9.18;4.80;;;;;;;22.79;63.04;99333.19;5147861;27;20039;-74
2023/06/22 05:52:35;;;;;;;12.02;4.30;;;;;;;22.77;62.63;99321.69;5148026;27;20323;-74
2023/06/22 05:55:03;;;;;;;6.68;3.95;;;;;;;22.95;62.33;99328.66;5146481;27;20055;-74
2023/06/22 05:57:30;;;;;;;8.98;4.50;;;;;;;22.98;62.41;99335.59;5146864;27;20039;-74
2023/06/22 05:59:57;;;;;;;11.30;4.15;;;;;;;23.03;61.98;99334.09;5146758;27;20194;-74
2023/06/22 06:02:25;;;;;;;6.75;4.70;;;;;;;23.09;62.07;99343.41;5147246;27;20225;-75
2023/06/22 06:04:54;;;;;;;7.50;4.22;;;;;;;23.08;61.66;99335.47;5147371;27;20102;-75
2023/06/22 06:07:22;;;;;;;7.60;4.25;;;;;;;23.09;61.40;99348.81;5146858;27;20046;-74
2023/06/22 06:09:49;;;;;;;10.07;4.63;;;;;;;23.15;61.55;99345.44;5147799;27;20047;-75
2023/06/22 06:12:16;;;;;;;7.57;5.22;;;;;;;23.18;61.67;99352.38;5147272;27;20051;-74
2023/06/22 06:14:42;;;;;;;9.73;5.07;;;;;;;23.22;61.62;99342.94;5147453;27;20088;-74
2023/06/22 06:17:09;;;;;;;9.05;4.68;;;;;;;23.25;61.81;99348.00;5146390;27;20035;-74
2023/06/22 06:19:36;;;;;;;14.98;4.68;;;;;;;23.22;61.37;99349.19;5146315;27;20043;-75
2023/06/22 06:22:04;;;;;;;12.05;5.18;;;;;;;23.29;61.54;99355.66;5146536;27;20046;-75
2023/06/22 06:24:31;;;;;;;9.05;4.63;;;;;;;23.13;61.64;99315.03;5147511;27;20035;-75
2023/06/22 06:26:58;;;;;;;7.35;4.30;;;;;;;22.70;61.30;99229.66;5146396;27;20054;-74
2023/06/22 06:29:25;;;;;;;10.98;4.85;;;;;;;23.43;61.88;99345.19;5146963;27;20035;-75
2023/06/22 06:31:51;;;;;;;9.32;5.63;;;;;;;23.36;62.23;99356.69;5147218;27;20050;-74
2023/06/22 06:34:18;;;;;;;10.98;5.43;;;;;;;23.42;62.01;99352.47;5146097;27;20279;-75
2023/06/22 06:36:45;;;;;;;12.00;7.05;;;;;;;23.50;62.17;99357.88;5146429;27;20049;-75
2023/06/22 06:39:13;;;;;;;10.60;6.13;;;;;;;23.45;62.20;99359.41;5146136;27;20039;-75
2023/06/22 06:41:40;;;;;;;10.77;5.80;;;;;;;23.47;62.31;99354.69;5145333;27;20039;-74
2023/06/22 06:44:07;;;;;;;9.05;5.90;;;;;;;23.32;62.45;99314.75;5147376;27;20113;-75
2023/06/22 06:46:34;;;;;;;10.70;6.70;;;;;;;23.42;62.15;99344.34;5146147;27;20045;-74
2023/06/22 06:49:00;;;;;;;13.50;7.38;;;;;;;23.49;62.30;99348.09;5145880;27;20081;-75
2023/06/22 06:51:27;;;;;;;12.57;7.20;;;;;;;23.56;62.51;99326.63;5147297;27;20043;-75
2023/06/22 06:53:54;;;;;;;12.88;6.80;;;;;;;23.57;62.41;99303.97;5146464;27;20059;-75
2023/06/22 06:56:22;;;;;;;17.02;7.88;;;;;;;23.74;62.38;99327.31;5146959;27;20039;-74
2023/06/22 06:58:51;;;;;;;14.52;8.55;;;;;;;23.83;62.35;99325.44;5147031;27;20039;-75
2023/06/22 07:01:19;;;;;;;16.85;9.30;;;;;;;23.89;62.68;99322.06;5146979;27;20080;-75
2023/06/22 07:03:46;;;;;;;14.23;9.63;;;;;;;23.94;62.99;99325.94;5146593;27;20191;-74
2023/06/22 07:06:14;;;;;;;15.20;9.43;;;;;;;24.08;62.69;99323.59;5145682;28;20039;-74
2023/06/22 07:08:41;;;;;;;15.30;10.10;;;;;;;24.14;62.84;99325.59;5147102;28;20283;-75
2023/06/22 07:11:07;;;;;;;17.52;11.48;;;;;;;24.23;62.75;99322.72;5146421;27;20249;-74
2023/06/22 07:13:35;;;;;;;15.70;11.48;;;;;;;24.26;61.75;99322.38;5147019;27;20046;-75
2023/06/22 07:16:03;;;;;;;18.60;10.82;;;;;;;23.96;61.39;99277.88;5145571;28;20069;-75
2023/06/22 07:18:30;;;;;;;14.70;10.60;;;;;;;24.25;61.17;99315.25;5145453;28;20221;-75
2023/06/22 07:20:57;;;;;;;16.50;10.43;;;;;;;24.40;61.30;99319.97;5146940;28;20035;-75
2023/06/22 07:23:24;;;;;;;14.80;9.25;;;;;;;24.56;61.18;99315.31;5147516;27;20042;-74
2023/06/22 07:25:50;;;;;;;14.95;10.73;;;;;;;24.75;60.77;99318.66;5146516;27;20057;-75
2023/06/22 07:28:17;;;;;;;13.80;9.45;;;;;;;24.71;61.01;99293.78;5145371;28;20172;-75
2023/06/22 07:30:47;;;;;;;12.48;9.23;;;;;;;24.95;60.55;99292.81;5146927;28;20046;-75
2023/06/22 07:33:13;;;;;;;16.17;8.38;;;;;;;25.28;59.97;99312.47;5146113;27;20127;-75
2023/06/22 07:35:40;;;;;;;24.58;10.63;;;;;;;25.42;59.72;99309.03;5146813;27;20183;-75
2023/06/22 07:38:08;;;;;;;14.65;10.23;;;;;;;25.35;58.89;99315.34;5146496;28;20092;-75
2023/06/22 07:40:35;;;;;;;18.48;9.40;;;;;;;25.58;59.32;99316.19;5146586;27;20110;-75
2023/06/22 07:43:03;;;;;;;15.10;9.70;;;;;;;25.62;58.58;99313.97;5145454;28;20035;-75
2023/06/22 07:45:30;;;;;;;13.48;11.55;;;;;;;25.92;57.85;99315.72;5146439;27;20043;-75
2023/06/22 07:47:58;;;;;;;15.85;9.98;;;;;;;26.00;57.46;99312.13;5146194;28;20303;-75
2023/06/22 07:50:25;;;;;;;15.93;9.88;;;;;;;26.09;56.78;99322.72;5146579;28;20085;-75
2023/06/22 07:52:53;;;;;;;14.95;9.35;;;;;;;25.96;56.81;99305.34;5146424;27;20318;-75
2023/06/22 07:55:20;;;;;;;14.68;7.80;;;;;;;25.93;56.73;99268.53;5149716;27;20104;-75
2023/06/22 07:57:48;;;;;;;12.40;8.98;;;;;;;26.22;56.50;99282.19;5149222;27;20031;-75
2023/06/22 08:00:16;;;;;;;16.63;10.18;;;;;;;26.60;55.68;99305.69;5150491;27;20039;-75
2023/06/22 08:02:43;;;;;;;14.93;8.88;;;;;;;26.81;54.95;99301.19;5150260;27;20062;-75
2023/06/22 08:05:12;;;;;;;11.55;8.30;;;;;;;26.92;54.60;99304.47;5150311;27;20041;-75
2023/06/22 08:07:39;;;;;;;14.00;8.07;;;;;;;27.00;54.74;99310.63;5150082;27;20183;-75
2023/06/22 08:10:06;;;;;;;18.17;8.68;;;;;;;26.90;54.25;99307.38;5150346;27;20039;-75
2023/06/22 08:12:33;;;;;;;12.98;9.05;;;;;;;26.94;52.48;99299.69;5149956;27;20039;-75
2023/06/22 08:15:00;;;;;;;10.93;7.95;;;;;;;26.92;53.73;99299.03;5149588;27;20035;-75
2023/06/22 08:17:28;;;;;;;13.02;8.70;;;;;;;27.13;52.33;99299.91;5148659;27;20042;-74
2023/06/22 08:19:55;;;;;;;15.25;9.93;;;;;;;27.21;52.81;99292.66;5149618;27;20325;-74
2023/06/22 08:22:23;;;;;;;11.93;7.72;;;;;;;27.30;51.43;99295.09;5149818;27;20042;-75
2023/06/22 08:24:50;;;;;;;12.93;8.43;;;;;;;27.18;52.66;99308.34;5149485;27;20051;-75
2023/06/22 08:27:18;;;;;;;14.38;8.55;;;;;;;27.01;52.83;99308.75;5149897;27;20106;-75
2023/06/22 08:29:46;;;;;;;14.57;8.32;;;;;;;25.24;51.79;98981.13;5148564;27;20164;-75
2023/06/22 08:32:13;;;;;;;14.55;8.52;;;;;;;27.41;51.61;99310.91;5149762;27;20051;-74
2023/06/22 08:34:42;;;;;;;12.52;8.00;;;;;;;27.64;51.23;99299.88;5149329;27;20039;-75
2023/06/22 08:37:08;;;;;;;12.23;9.00;;;;;;;27.36;50.39;99274.44;5148476;27;20035;-75
2023/06/22 08:39:37;;;;;;;16.05;9.93;;;;;;;27.50;50.43;99270.81;5148495;27;20061;-75
2023/06/22 08:42:04;;;;;;;14.02;8.50;;;;;;;27.57;50.39;99290.75;5149728;27;20089;-75
2023/06/22 08:44:31;;;;;;;14.85;9.02;;;;;;;26.39;50.48;99113.56;5148353;27;20296;-75
2023/06/22 08:46:58;;;;;;;16.00;10.05;;;;;;;27.45;49.94;99295.03;5149025;27;20039;-75
2023/06/22 08:49:25;;;;;;;12.85;8.00;;;;;;;27.82;50.00;99288.50;5149080;27;20045;-74
2023/06/22 08:51:53;;;;;;;12.65;7.68;;;;;;;27.81;49.22;99282.22;5149600;27;20096;-75
2023/06/22 08:54:21;;;;;;;12.25;8.25;;;;;;;27.69;50.18;99281.06;5149163;27;20114;-75
2023/06/22 08:56:49;;;;;;;12.75;9.15;;;;;;;27.85;49.88;99273.69;5148258;27;20043;-75
2023/06/22 08:59:16;;;;;;;15.70;8.43;;;;;;;28.02;49.08;99283.22;5148830;27;20245;-75
2023/06/22 09:01:48;;;;;;;10.35;7.95;;;;;;;27.87;49.55;99279.75;5147930;27;20050;-75
2023/06/22 09:04:15;;;;;;;15.50;9.30;;;;;;;27.56;49.33;99198.41;5148160;27;20047;-75
2023/06/22 09:06:44;;;;;;;16.35;8.82;;;;;;;28.03;48.88;99274.03;5148467;27;20035;-75
2023/06/22 09:09:12;;;;;;;10.77;7.63;;;;;;;28.24;47.69;99275.84;5149129;27;20195;-75
2023/06/22 09:11:39;;;;;;;14.48;8.40;;;;;;;28.07;47.30;99218.94;5148653;27;20237;-75
2023/06/22 09:14:07;;;;;;;12.73;8.13;;;;;;;28.32;48.09;99278.41;5147717;27;20039;-75
2023/06/22 09:16:35;;;;;;;10.65;7.90;;;;;;;28.31;47.92;99277.56;5148527;27;20066;-75
2023/06/22 09:19:02;;;;;;;10.85;7.63;;;;;;;28.43;47.68;99273.25;5148544;27;20299;-75
2023/06/22 09:21:29;;;;;;;10.00;7.50;;;;;;;28.64;47.90;99266.03;5148410;27;20061;-75
2023/06/22 09:23:56;;;;;;;14.27;8.65;;;;;;;28.63;47.29;99246.09;5148333;27;20073;-75
2023/06/22 09:26:23;;;;;;;10.55;7.95;;;;;;;28.85;47.78;99278.69;5147436;27;20039;-75
2023/06/22 09:28:50;;;;;;;12.18;7.90;;;;;;;28.80;47.22;99273.00;5148899;27;20038;-75
2023/06/22 09:31:25;;;;;;;11.20;7.45;;;;;;;28.59;47.99;99258.44;5148496;27;20035;-75
2023/06/22 09:33:52;;;;;;;12.13;9.23;;;;;;;28.96;47.65;99265.31;5148125;27;20081;-75
2023/06/22 09:36:18;;;;;;;13.20;8.73;;;;;;;29.18;47.10;99263.28;5147118;27;20039;-75
2023/06/22 09:38:45;;;;;;;12.30;8.73;;;;;;;29.15;46.75;99252.78;5147970;27;20043;-75
2023/06/22 09:41:12;;;;;;;15.63;8.57;;;;;;;29.10;46.17;99257.19;5148561;27;20073;-75
2023/06/22 09:43:39;;;;;;;10.32;7.55;;;;;;;29.08;47.23;99252.78;5147023;27;20180;-75
2023/06/22 09:46:07;;;;;;;13.02;7.72;;;;;;;29.27;46.58;99255.75;5148419;27;20042;-75
2023/06/22 09:48:35;;;;;;;14.35;8.05;;;;;;;29.12;46.76;99252.38;5148405;27;20077;-75
2023/06/22 09:51:02;;;;;;;14.38;7.88;;;;;;;28.56;47.05;99140.78;5147244;27;20063;-75
2023/06/22 09:53:29;;;;;;;10.52;8.10;;;;;;;29.30;46.36;99238.97;5146681;27;20039;-75
2023/06/22 09:55:57;;;;;;;11.32;9.93;;;;;;;29.16;47.27;99243.56;5146900;27;20035;-74
2023/06/22 09:58:23;;;;;;;9.32;7.72;;;;;;;29.21;46.79;99249.22;5146869;27;20295;-75
2023/06/22 10:00:50;;;;;;;8.45;7.05;;;;;;;29.03;46.03;99200.72;5148112;27;20042;-74
2023/06/22 10:03:17;;;;;;;10.10;7.88;;;;;;;29.23;46.20;99252.59;5147985;27;20051;-75
2023/06/22 10:05:45;;;;;;;13.98;7.85;;;;;;;29.20;46.25;99233.06;5147670;27;20326;-75
2023/06/22 10:08:12;;;;;;;12.20;7.60;;;;;;;29.37;46.54;99234.34;5147590;27;20045;-75
2023/06/22 10:10:39;;;;;;;13.70;8.43;;;;;;;29.51;46.26;99229.75;5147421;27;20051;-75
2023/06/22 10:13:10;;;;;;;10.90;8.05;;;;;;;29.36;45.93;99240.84;5147634;27;20039;-75
2023/06/22 10:15:36;;;;;;;12.80;8.32;;;;;;;29.42;46.72;99229.09;5146147;27;20035;-74
2023/06/22 10:18:03;;;;;;;14.00;7.65;;;;;;;29.58;46.01;99245.09;5146925;27;20047;-75
2023/06/22 10:20:30;;;;;;;8.93;6.90;;;;;;;29.52;45.75;99232.25;5146291;27;20041;-74
2023/06/22 10:22:58;;;;;;;11.50;7.03;;;;;;;29.65;46.33;99231.44;5147233;27;20061;-75
2023/06/22 10:25:26;;;;;;;9.65;7.00;;;;;;;29.36;46.71;99229.94;5147121;27;20210;-75
2023/06/22 10:27:53;;;;;;;9.93;6.85;;;;;;;29.45;45.45;99228.69;5146412;27;20041;-74
2023/06/22 10:30:20;;;;;;;9.88;7.40;;;;;;;29.34;45.90;99230.16;5146298;27;20191;-74
2023/06/22 10:32:46;;;;;;;12.75;7.00;;;;;;;29.49;45.43;99231.84;5147301;27;20309;-74
2023/06/22 10:35:15;;;;;;;8.15;6.05;;;;;;;29.54;45.80;99230.16;5147345;27;20043;-73
2023/06/22 10:37:43;;;;;;;10.70;6.13;;;;;;;29.69;45.06;99221.78;5146296;27;20083;-74
2023/06/22 10:40:13;;;;;;;12.32;6.30;;;;;;;29.68;43.99;99220.94;5147473;27;20047;-74
2023/06/22 10:42:40;;;;;;;11.25;5.75;;;;;;;29.54;44.22;99221.97;5147086;27;20043;-74
2023/06/22 10:45:09;;;;;;;8.32;4.75;;;;;;;29.61;43.94;99220.09;5146040;27;20038;-73
2023/06/22 10:47:35;;;;;;;9.57;5.40;;;;;;;29.46;44.20;99224.06;5145786;27;20233;-73
2023/06/22 10:50:02;;;;;;;9.93;5.35;;;;;;;29.55;43.49;99217.34;5146962;27;20345;-73
2023/06/22 10:52:29;;;;;;;10.40;4.93;;;;;;;29.52;43.70;99210.41;5145630;27;20088;-74
2023/06/22 10:54:56;;;;;;;9.18;4.15;;;;;;;29.50;43.99;99212.53;5146675;27;20050;-73
2023/06/22 10:57:24;;;;;;;6.97;3.85;;;;;;;29.61;42.84;99211.06;5146981;27;20066;-73
2023/06/22 10:59:51;;;;;;;6.55;4.47;;;;;;;29.70;43.99;99198.88;5147305;27;20046;-74
2023/06/22 11:02:17;;;;;;;7.50;4.45;;;;;;;29.53;43.79;99203.91;5147015;27;20076;-73
2023/06/22 11:04:45;;;;;;;7.70;4.22;;;;;;;29.28;43.79;99200.13;5146923;27;20057;-73
2023/06/22 11:07:12;;;;;;;8.30;5.03;;;;;;;29.19;43.35;99182.28;5146360;27;20039;-73
2023/06/22 11:09:39;;;;;;;10.05;5.00;;;;;;;29.28;43.41;99190.03;5146315;28;20031;-73
2023/06/22 11:12:07;;;;;;;6.13;4.43;;;;;;;29.23;43.54;99189.81;5146420;28;20070;-73
2023/06/22 11:14:35;;;;;;;6.72;4.80;;;;;;;29.06;43.58;99175.75;5147021;27;20053;-74
2023/06/22 11:17:02;;;;;;;7.82;5.55;;;;;;;29.09;43.12;99171.75;5146702;27;20035;-73
2023/06/22 11:19:29;;;;;;;8.93;5.07;;;;;;;29.14;43.58;99173.88;5145599;28;20133;-73
2023/06/22 11:21:56;;;;;;;11.05;4.90;;;;;;;29.10;43.13;99170.72;5146778;27;20202;-74
2023/06/22 11:24:23;;;;;;;11.18;6.35;;;;;;;29.17;43.76;99174.28;5146736;27;20035;-74
2023/06/22 11:26:50;;;;;;;12.50;6.50;;;;;;;29.08;43.90;99164.63;5146860;28;20043;-74
2023/06/22 11:29:16;;;;;;;10.50;6.43;;;;;;;29.41;43.25;99161.91;5149330;27;20245;-74
2023/06/22 11:31:45;;;;;;;9.75;6.25;;;;;;;28.97;43.10;99166.06;5150860;27;20287;-72